Deva — A8OK3 — position and weather

sailwx.info

Track history (hours):
 
Tides and Currents Weather Stations Pressure Air Temp Water Temp Dewpoint Dewpoint Depression Visibility Wind Speed Wind Dir Waves Ship Positions

Deva

Last reported at 2016-May-01 06:33 UTC. Time now 2016-May-01 21:12 UTC.
Position N 24°51' E 119°33'.

Length 259 m; draft 9.9 m.

Type: Ship (hazmat cat A). MMSI: 636013644.

Date/timePositionNaut miles runAvg speedWind from/ knotsBaromVisibWave heightAir tempDewpointWater temp
2016-May-01 06:33N 24°51' E 119°33'1818.0
2016-May-01 05:33N 24°39' E 119°18'1818.0
2016-May-01 04:32N 24°28' E 119°02'1818.1
2016-May-01 03:33N 24°19' E 118°45'1818.1
2016-May-01 02:33N 24°14' E 118°26'1111.0
2016-May-01 01:33N 24°16' E 118°14'10 9.7
2016-May-01 00:33N 24°23' E 118°07'9 8.1
2016-Apr-30 23:27N 24°27' E 117°58'0 0.0
2016-Apr-30 21:27N 24°27' E 117°58'0 0.0
2016-Apr-30 19:33N 24°27' E 117°58'0 0.0
2016-Apr-30 18:33N 24°27' E 117°58'0 0.0
2016-Apr-30 17:33N 24°27' E 117°58'0 0.0
2016-Apr-30 16:27N 24°27' E 117°58'0 0.0
2016-Apr-30 15:27N 24°27' E 117°58'0 0.0
2016-Apr-30 14:30N 24°27' E 117°58'0 0.0
2016-Apr-30 12:21N 24°27' E 117°58'0 0.0
2016-Apr-30 11:20N 24°27' E 117°58'4 4.8
2016-Apr-30 10:33N 24°26' E 118°02'10 9.8
2016-Apr-30 09:33N 24°20' E 118°10'9 8.8
2016-Apr-30 08:33N 24°13' E 118°17'1111.4
2016-Apr-30 07:33N 24°03' E 118°23'2015.4
2016-Apr-30 06:15N 23°45' E 118°14'  
2016-Apr-26 14:08N 01°16' E 104°11'711.8
2016-Apr-26 13:33N 01°15' E 104°04'1111.1
2016-Apr-26 12:33N 01°12' E 103°53'23 9.3
2016-Apr-26 10:06N 01°07' E 103°31'6915.2
2016-Apr-26 05:33N 01°44' E 102°33'1817.7
2016-Apr-26 04:33N 01°51' E 102°17'  
Track history (hours):
 
Tides and Currents Weather Stations Pressure Air Temp Water Temp Dewpoint Dewpoint Depression Visibility Wind Speed Wind Dir Waves Ship Positions

Deva

Last reported at 2016-May-01 06:33 UTC. Time now 2016-May-01 21:12 UTC.
Position N 24°51' E 119°33'.

Length 259 m; draft 9.9 m.

Type: Ship (hazmat cat A). MMSI: 636013644.

Date/timePositionNaut miles runAvg speedWind from/ knotsBaromVisibWave heightAir tempDewpointWater temp
2016-May-01 06:33N 24°51' E 119°33'1818.0
2016-May-01 05:33N 24°39' E 119°18'1818.0
2016-May-01 04:32N 24°28' E 119°02'1818.1
2016-May-01 03:33N 24°19' E 118°45'1818.1
2016-May-01 02:33N 24°14' E 118°26'1111.0
2016-May-01 01:33N 24°16' E 118°14'10 9.7
2016-May-01 00:33N 24°23' E 118°07'9 8.1
2016-Apr-30 23:27N 24°27' E 117°58'0 0.0
2016-Apr-30 21:27N 24°27' E 117°58'0 0.0
2016-Apr-30 19:33N 24°27' E 117°58'0 0.0
2016-Apr-30 18:33N 24°27' E 117°58'0 0.0
2016-Apr-30 17:33N 24°27' E 117°58'0 0.0
2016-Apr-30 16:27N 24°27' E 117°58'0 0.0
2016-Apr-30 15:27N 24°27' E 117°58'0 0.0
2016-Apr-30 14:30N 24°27' E 117°58'0 0.0
2016-Apr-30 12:21N 24°27' E 117°58'0 0.0
2016-Apr-30 11:20N 24°27' E 117°58'4 4.8
2016-Apr-30 10:33N 24°26' E 118°02'10 9.8
2016-Apr-30 09:33N 24°20' E 118°10'9 8.8
2016-Apr-30 08:33N 24°13' E 118°17'1111.4
2016-Apr-30 07:33N 24°03' E 118°23'2015.4
2016-Apr-30 06:15N 23°45' E 118°14'  
2016-Apr-26 14:08N 01°16' E 104°11'711.8
2016-Apr-26 13:33N 01°15' E 104°04'1111.1
2016-Apr-26 12:33N 01°12' E 103°53'23 9.3
2016-Apr-26 10:06N 01°07' E 103°31'6915.2
2016-Apr-26 05:33N 01°44' E 102°33'1817.7
2016-Apr-26 04:33N 01°51' E 102°17'  

Dump ship's entire track history